YXTR weather

Taree - Wrigley Park Helipad
Taree, New South Wales, Australia

Public forecast

Using degrees Celsius for public forecast. Weather courtesy of forecast.io.

Closest aviation weather report (METAR) to Taree - Wrigley Park Helipad

Closest report is Taree Airport, 3.4 nm (6.3 km) ENE. Retrieved 2019/10/16 08:00 UTC (50 minutes ago):

YTRE 160800Z AUTO 10005KT 9999 -SHRA SCT010 SCT071 20/17 Q1009

Closest aviation forecast (TAF) to Taree - Wrigley Park Helipad

Forecast is more than 6 hours old.

Closest forecast is Taree Airport, 3.4 nm (6.3 km) ENE. Retrieved 2019-10-16 02:33 UTC (6 hours ago):

TAF YTRE 160106Z 1602/1614 10010KT CAVOK FM160800 14005KT 9999 -SHRA FEW010 FM161000 22006KT 9999 -SHRA BKN005 PROB30 1611/1614 0500 FG BKN002